Detalhes do Voo

Voltar

 DETALHES DO VÔO

Piloto: GLD1134 Wellinghton L. Aeronave: Beechcraft Distância: 177NM
Origem: SBUL Destino: SWLC Duração: 1.18
Validação: Validado Tipo: Charter Matrícula: PT-GLD
ZFW: 4373 Block Fuel/Init FOB 220/156 Combustível em Voo 220
Passageiros: 5 Carga: 100 Alternativo: SBGO
Hora da Decolagem: 1137 Velocidade de Cruzeiro: 0190 Nível de Voo: F100
Regra Visual: VFR ICAO da Aeronave: BE58 Unidade de Peso: Kg
Data: 11/04/2026 Observação: GOLD ACARS Rede: VATSIM
Acidentou?: Não Comentários do Validador: Pontuação do Voo 102.495

 ROTA

ROTA 1839S04852W 1812S05000W
REMARKS OPR/GOLD VIRTUAL AIRLINES PER/A RMK/FROM SBUL RMK/PIC GLD1134

 PENALIDADES DO VOO

Para entender como cada item é pontuado, consulte as regras de avaliação.

Nenhuma penalidade registrada para este voo.

 ANÁLISE DO POUSO

Vento durante o pouso: 76º/9 kt Proa durante o pouso: 13
V/S do Pouso: -45 ft/min IAS do Pouso: 77 kt
Força G no pouso: 1.1104 G Bank no pouso: -2.57
Pitch no Pouso 6 Flaps no Pouso 100
Nav Lights ON Landing Lights ON
Beacon Lights ON Strobe Lights ON

 MAPA DO VOO

 PERFIL VERTICAL DO VOO

 EVENTOS PRINCIPAIS DO VOO

DATAEVENTOIASALTITUDE
2026-04-11 11:37:42 GOLD ACARS VERSION 3.3.6.900
2026-04-11 11:37:42 BCN LIGHTS ON00
2026-04-11 11:37:42 BOARDING02918
2026-04-11 11:37:42 STARTING ENGINE 102918
2026-04-11 11:37:42 LITTLENAVMAP ON02918
2026-04-11 11:37:56 STARTING ENGINE 202918
2026-04-11 11:41:14 TAXI LIGHTS ON03102
2026-04-11 11:41:24 TAXI TO THE RWY03102
2026-04-11 11:44:43 STOPPING ENGINE 103101
2026-04-11 11:44:43 STARTING ENGINE 103101
2026-04-11 11:44:46 STOPPING ENGINE 203101
2026-04-11 11:44:46 STARTING ENGINE 203101
2026-04-11 11:44:53 STOPPING ENGINE 103101
2026-04-11 11:44:54 STARTING ENGINE 103101
2026-04-11 11:44:57 STOPPING ENGINE 203101
2026-04-11 11:44:57 STARTING ENGINE 203101
2026-04-11 11:46:15 LND LIGHTS ON03101
2026-04-11 11:46:17 STB LIGHTS ON03101
2026-04-11 11:46:51 FLAP 50%83101
2026-04-11 11:48:15 FLAP 0%03100
2026-04-11 11:50:30 GEAR UP973108
2026-04-11 11:50:44 CLIMBING1243189
2026-04-11 11:51:39 CRUISE1384265
2026-04-11 11:51:42 CLIMBING1424277
2026-04-11 11:51:56 AP ENGAGED1394481
2026-04-11 11:52:26 CRUISE1574736
2026-04-11 11:52:29 CLIMBING1574754
2026-04-11 11:54:51 CRUISE1586108
2026-04-11 11:54:53 CLIMBING1576120
2026-04-11 12:01:55 CRUISE1389987
2026-04-11 12:25:08 DESCEND1619989
2026-04-11 12:40:24 CLIMBING1603495
2026-04-11 12:40:26 CRUISE1603502
2026-04-11 12:40:27 LANDING1603500
2026-04-11 12:42:15 GEAR DOWN1513491
2026-04-11 12:43:03 AP DISENGAGED1313491
2026-04-11 12:43:10 FLAP 50%1283461
2026-04-11 12:44:08 FLAP 100%1193038
2026-04-11 12:44:59 LANDED AIRPORT [SWLC]792534
2026-04-11 12:44:59 LANDED - VS: -45 ft/min762533
2026-04-11 12:44:59 LANDING WITH INCORRECT QNH - SET:1016 LOCAL: 1013762533
2026-04-11 12:45:06 FLAP 0%612533
2026-04-11 12:45:16 TAXI TO THE GATE282539
2026-04-11 12:45:48 TAXI LIGHTS ON22540
2026-04-11 12:45:50 STB LIGHTS OFF32539
2026-04-11 12:47:08 AT THE GATE02536
2026-04-11 12:47:11 TAXI LIGHTS OFF02536
2026-04-11 12:47:11 NAV LIGHTS OFF02536
2026-04-11 12:47:16 STOPPING ENGINE 102536
2026-04-11 12:47:18 STOPPING ENGINE 202536
2026-04-11 12:47:36 BCN LIGHTS OFF02536
2026-04-11 12:48:13 LANDED NOT IN THE PLANNED AIRPORT [SBUL] - [lat: -17,8347797315901] - [long: -50,9575164784834]02536
2026-04-11 12:48:14 FLIGHT FINISHED02536

 DADOS DO ACARS

DATA IAS GS ALTITUDE COMBUSTÍVEL USADO OAT FASE DO VOO
2026-04-11 11:39:42 0 0 2918 0 26 BOARDING
2026-04-11 11:40:42 0 0 3102 0 26 BOARDING
2026-04-11 11:41:42 13 8 3102 0 26 BOARDING
2026-04-11 11:42:42 0 7 3102 0 26 TAXI TO THE RWY
2026-04-11 11:43:42 0 0 3101 1 26 TAXI TO THE RWY
2026-04-11 11:44:42 0 0 3101 1 26 TAXI TO THE RWY
2026-04-11 11:45:42 0 0 3101 1 26 TAXI TO THE RWY
2026-04-11 11:46:42 18 13 3101 2 26 TAXI TO THE RWY
2026-04-11 11:47:43 0 0 3100 2 26 TAXI TO THE RWY
2026-04-11 11:48:43 0 6 3101 2 26 TAXI TO THE RWY
2026-04-11 11:49:43 0 0 3100 2 26 TAXI TO THE RWY
2026-04-11 11:50:43 121 131 3173 3 26 TAXI TO THE RWY
2026-04-11 11:51:43 142 168 4283 5 21 TAXI TO THE RWY
2026-04-11 11:52:43 164 191 4886 6 19 CLIMBING
2026-04-11 11:53:43 163 190 5460 8 18 CLIMBING
2026-04-11 11:54:43 157 187 6029 9 16 CLIMBING
2026-04-11 11:55:43 153 183 6606 11 15 CLIMBING
2026-04-11 11:56:43 156 188 7172 12 14 CLIMBING
2026-04-11 11:57:44 155 192 7566 14 13 CLIMBING
2026-04-11 11:58:44 150 187 8128 15 12 CLIMBING
2026-04-11 11:59:44 147 183 8705 16 11 CLIMBING
2026-04-11 12:00:44 142 179 9288 18 10 CLIMBING
2026-04-11 12:01:44 138 178 9886 19 8 CLIMBING
2026-04-11 12:02:44 155 195 10007 20 8 CLIMBING
2026-04-11 12:03:44 158 200 10009 21 8 CRUISE
2026-04-11 12:04:44 160 200 10002 22 8 CRUISE
2026-04-11 12:05:44 161 203 10003 24 8 CRUISE
2026-04-11 12:06:44 167 209 10005 25 8 CRUISE
2026-04-11 12:07:45 166 208 10003 26 8 CRUISE
2026-04-11 12:08:45 168 208 10004 27 8 CRUISE
2026-04-11 12:09:45 167 207 10008 28 8 CRUISE
2026-04-11 12:10:45 166 207 10004 29 9 CRUISE
2026-04-11 12:11:45 164 205 10003 30 9 CRUISE
2026-04-11 12:12:45 163 205 10002 32 9 CRUISE
2026-04-11 12:13:45 164 206 10005 33 9 CRUISE
2026-04-11 12:14:45 166 208 10008 34 9 CRUISE
2026-04-11 12:15:46 165 205 10000 35 9 CRUISE
2026-04-11 12:16:46 164 206 10006 36 9 CRUISE
2026-04-11 12:17:46 167 208 10005 37 9 CRUISE
2026-04-11 12:18:46 167 208 10008 38 9 CRUISE
2026-04-11 12:19:46 165 204 10004 39 9 CRUISE
2026-04-11 12:20:46 163 203 9997 41 9 CRUISE
2026-04-11 12:21:46 163 204 10002 42 9 CRUISE
2026-04-11 12:22:47 166 205 10005 43 9 CRUISE
2026-04-11 12:23:47 164 202 10002 44 9 CRUISE
2026-04-11 12:24:47 162 200 10002 45 9 CRUISE
2026-04-11 12:25:47 171 209 9683 46 9 CRUISE
2026-04-11 12:26:47 174 212 9190 47 10 DESCEND
2026-04-11 12:27:47 174 210 8699 48 11 DESCEND
2026-04-11 12:28:47 175 210 8211 49 12 DESCEND
2026-04-11 12:29:47 175 207 7734 50 13 DESCEND
2026-04-11 12:30:47 175 204 7258 51 14 DESCEND
2026-04-11 12:31:47 172 201 6794 52 15 DESCEND
2026-04-11 12:32:48 173 201 6396 53 16 DESCEND
2026-04-11 12:33:48 172 197 5905 54 17 DESCEND
2026-04-11 12:34:48 173 199 5427 55 18 DESCEND
2026-04-11 12:35:48 175 200 4947 55 19 DESCEND
2026-04-11 12:36:48 181 203 4466 56 21 DESCEND
2026-04-11 12:37:48 173 195 3998 57 22 DESCEND
2026-04-11 12:38:48 179 198 3508 58 24 DESCEND
2026-04-11 12:39:48 165 189 3491 60 24 DESCEND
2026-04-11 12:40:48 163 183 3502 61 24 DESCEND
2026-04-11 12:41:48 155 179 3499 62 24 LANDING
2026-04-11 12:42:48 141 158 3504 63 24 LANDING
2026-04-11 12:43:48 129 129 3288 63 25 LANDING
2026-04-11 12:44:49 94 101 2589 64 29 LANDING
2026-04-11 12:45:49 3 18 2539 64 29 LANDING
2026-04-11 12:46:49 0 11 2534 64 29 TAXI TO THE GATE